Allenton, Missouri
Current Conditions -  °F | °C
As of 5:54 AM on Thursday 27 Nov 2014 (Local Time) from KSUS Reporting Station
Overcast Overcast  
Wind Chill: -7°   Ceiling: 1500
Heat Index: -1°   Visibility: 9mi
Dew Point: -4°   Wind: 14mph
Humidity: 82%   Direction: 320°NW
Pressure: 30.41"   Gusts: NA
Location:  38.5°N, 90.68°W
Report Text: KSUS 271154Z 32012KT 9SM OVC015 M01/M04 A3041 RMK AO2 SLP307 60000 70017 T10111039 10006 21011 51022
Loading
Personal Weather Stations






























Interactive Weather Map New forecast layout! Learn more

10-Day Weather Forecast

Advertisements
Track Severe Weather on mobile